createdAt,value
2023-04-18T15:57:25.469Z,17.23
2023-04-18T15:59:52.196Z,19.50
2023-04-18T16:02:19.093Z,18.17
2023-04-18T16:04:46.286Z,21.33
2023-04-18T16:07:13.183Z,20.77
2023-04-18T16:09:39.810Z,24.87
2023-04-18T16:12:08.067Z,19.00
2023-04-18T16:14:34.863Z,17.63
2023-04-18T16:17:02.807Z,17.73
2023-04-18T16:19:30.022Z,18.10
2023-04-18T16:21:57.271Z,20.03
2023-04-18T16:24:25.482Z,18.20
2023-04-18T16:26:53.436Z,19.57
2023-04-18T16:29:20.373Z,21.00
2023-04-18T16:31:47.676Z,20.77
2023-04-18T16:34:15.812Z,20.73
2023-04-18T16:36:44.703Z,21.90
2023-04-18T16:39:11.368Z,21.13
2023-04-18T16:41:38.181Z,20.43
2023-04-18T16:44:05.183Z,22.60
2023-04-18T16:46:32.249Z,21.13
2023-04-18T16:48:59.269Z,17.80
2023-04-18T16:51:28.925Z,21.30
2023-04-18T16:53:55.799Z,22.50
2023-04-18T16:56:22.464Z,22.17
2023-04-18T16:58:49.212Z,25.30
2023-04-18T17:01:16.047Z,21.00
2023-04-18T17:03:45.140Z,21.33
2023-04-18T17:06:12.445Z,20.40
2023-04-18T17:08:39.070Z,21.43
2023-04-18T17:11:06.963Z,19.23
2023-04-18T17:13:35.975Z,19.10
2023-04-18T17:16:03.427Z,19.33
2023-04-18T17:18:30.439Z,22.30
2023-04-18T17:20:57.175Z,18.73
2023-04-18T17:23:24.049Z,19.50
2023-04-18T17:25:51.531Z,21.93
2023-04-18T17:28:18.588Z,21.93
2023-04-18T17:30:46.610Z,22.93
2023-04-18T17:33:13.460Z,20.67
2023-04-18T17:35:42.923Z,20.23
2023-04-18T17:38:10.787Z,21.50
2023-04-18T17:40:39.590Z,19.53
2023-04-18T17:43:06.394Z,22.33
2023-04-18T17:45:33.144Z,21.50
2023-04-18T17:50:49.646Z,23.13
2023-04-18T17:53:17.548Z,17.30
2023-04-18T17:55:45.182Z,21.67
2023-04-18T17:58:12.147Z,21.40
2023-04-18T18:00:38.997Z,20.67
2023-04-18T18:03:08.368Z,22.03
2023-04-18T18:05:37.706Z,20.07
2023-04-18T18:08:04.735Z,18.57
2023-04-18T18:10:33.210Z,20.00
2023-04-18T18:13:01.105Z,21.90
2023-04-18T18:15:28.486Z,19.07
2023-04-18T18:17:55.711Z,20.83
2023-04-18T18:20:22.613Z,19.90
2023-04-18T18:22:51.485Z,19.60
2023-04-18T18:25:18.680Z,21.50
2023-04-18T18:27:47.973Z,21.30
2023-04-18T18:30:14.827Z,20.90
2023-04-18T18:32:41.603Z,19.00
2023-04-18T18:35:08.871Z,18.60
2023-04-18T18:37:35.540Z,20.83
2023-04-18T18:40:04.808Z,21.43
2023-04-18T18:42:32.022Z,20.20
2023-04-18T18:44:59.055Z,21.40
2023-04-18T18:47:30.626Z,21.17
2023-04-18T18:49:58.515Z,21.57
2023-04-18T18:52:28.508Z,22.27
2023-04-18T18:54:55.521Z,21.60
2023-04-18T18:57:22.542Z,21.03
2023-04-18T18:59:53.857Z,20.10
2023-04-18T19:02:25.128Z,21.70
2023-04-18T19:04:52.454Z,23.40
2023-04-18T19:07:19.450Z,19.33
2023-04-18T19:09:47.236Z,20.50
2023-04-18T19:12:14.237Z,19.07
2023-04-18T19:14:44.832Z,22.53
2023-04-18T19:17:18.061Z,22.13
2023-04-18T19:19:44.848Z,21.17
2023-04-18T19:22:13.660Z,22.80
2023-04-18T19:24:40.366Z,20.93
2023-04-18T19:27:07.446Z,20.80
2023-04-18T19:29:36.028Z,20.63
2023-04-18T19:32:03.235Z,26.93
2023-04-18T19:34:33.443Z,22.50
2023-04-18T19:37:01.308Z,23.50
2023-04-18T19:39:28.449Z,24.33
2023-04-18T19:41:55.171Z,19.93
2023-04-18T19:44:22.443Z,23.53
2023-04-18T19:46:49.430Z,22.30
2023-04-18T19:49:16.726Z,17.53
2023-04-18T19:51:43.708Z,21.60
2023-04-18T19:54:13.230Z,20.23
2023-04-18T19:56:41.153Z,18.73
2023-04-18T19:59:08.300Z,20.57
2023-04-18T20:01:35.243Z,21.43
2023-04-18T20:04:02.345Z,20.53
2023-04-18T20:06:32.331Z,22.13
2023-04-18T20:08:59.025Z,21.70
2023-04-18T20:11:25.800Z,21.03
2023-04-18T20:13:54.826Z,20.97
2023-04-18T20:16:22.118Z,20.30
2023-04-18T20:18:50.174Z,21.57
2023-04-18T20:21:16.847Z,21.60
2023-04-18T20:23:45.122Z,21.30
2023-04-18T20:26:11.856Z,22.30
2023-04-18T20:28:38.570Z,23.20
2023-04-18T20:31:05.327Z,20.80
2023-04-18T20:33:32.911Z,22.60
2023-04-18T20:35:59.871Z,25.00
2023-04-18T20:38:29.466Z,18.90
2023-04-18T20:40:58.640Z,18.63
2023-04-18T20:43:25.730Z,21.67
2023-04-18T20:46:01.112Z,21.60
2023-04-18T20:48:31.549Z,20.83
2023-04-18T20:50:59.782Z,21.20
2023-04-18T20:53:27.179Z,19.77
2023-04-18T20:55:56.410Z,20.87
2023-04-18T20:58:23.558Z,21.03
2023-04-18T21:00:50.317Z,21.10
2023-04-18T21:03:17.223Z,24.33
2023-04-18T21:05:44.904Z,21.40
2023-04-18T21:08:14.317Z,19.80
2023-04-18T21:10:41.155Z,20.27
2023-04-18T21:13:09.173Z,20.90
2023-04-18T21:15:36.084Z,22.10
2023-04-18T21:18:03.399Z,21.37
2023-04-18T21:20:30.149Z,21.60
2023-04-18T21:22:57.060Z,20.00
2023-04-18T21:25:23.759Z,20.73
2023-04-18T21:27:50.961Z,23.83
2023-04-18T21:30:17.944Z,22.30
2023-04-18T21:32:48.933Z,23.83
2023-04-18T21:35:18.676Z,20.77
2023-04-18T21:37:46.688Z,22.63
2023-04-18T21:40:13.487Z,21.83
2023-04-18T21:42:40.196Z,21.30
2023-04-18T21:45:07.547Z,22.60
2023-04-18T21:47:34.338Z,20.90
2023-04-18T21:50:01.107Z,23.43
2023-04-18T21:52:28.069Z,23.30
2023-04-18T21:54:54.841Z,20.90
2023-04-18T21:57:22.011Z,20.70
2023-04-18T21:59:48.661Z,27.40
2023-04-18T22:02:18.762Z,29.33
2023-04-18T22:04:48.003Z,35.57
2023-04-18T22:07:18.675Z,34.67
2023-04-18T22:09:50.992Z,31.27
2023-04-18T22:12:19.234Z,26.73
2023-04-18T22:14:48.307Z,29.70
2023-04-18T22:17:15.465Z,26.90
2023-04-18T22:19:44.578Z,30.37
2023-04-18T22:22:11.488Z,36.80
2023-04-18T22:24:38.179Z,31.37
2023-04-18T22:27:04.781Z,32.80
2023-04-18T22:29:33.841Z,24.90
2023-04-18T22:32:00.562Z,23.43
2023-04-18T22:34:28.762Z,24.40
2023-04-18T22:36:55.672Z,23.03
2023-04-18T22:39:24.269Z,23.60
2023-04-18T22:41:50.850Z,21.13
2023-04-18T22:44:17.686Z,23.10
2023-04-18T22:46:46.432Z,20.47
2023-04-18T22:49:13.211Z,22.40
2023-04-18T22:51:39.809Z,24.37
2023-04-18T22:54:06.586Z,22.00
2023-04-18T22:56:34.556Z,21.00
2023-04-18T22:59:01.189Z,19.27
2023-04-18T23:01:27.841Z,22.23
2023-04-18T23:03:56.016Z,20.97
2023-04-18T23:06:23.109Z,24.33
2023-04-18T23:08:50.022Z,22.67
2023-04-18T23:11:16.748Z,22.67
2023-04-18T23:13:43.497Z,26.60
2023-04-18T23:16:10.258Z,22.10
2023-04-18T23:18:36.857Z,24.07
2023-04-18T23:21:03.797Z,25.80
2023-04-18T23:23:30.587Z,25.47
2023-04-18T23:25:57.329Z,25.60
2023-04-18T23:28:24.313Z,28.23
